Maple Dell, Vermont
Current Conditions -  °F | °C
As of 10:53 AM on Thursday 27 Nov 2014 (Local Time) from KLEB Reporting Station
Overcast Overcast  
Wind Chill: -5°   Ceiling: 2200
Heat Index: -1°   Visibility: 10mi
Dew Point: -6°   Wind: 7mph
Humidity: 72%   Direction: 310°NW
Pressure: 29.97"   Gusts: NA
Location:  43.3096°N, 72.4675°W
Report Text: KLEB 271553Z 31006KT 10SM OVC022 M01/M06 A2997 RMK AO2 SLP157 T10111056
Loading
Personal Weather Stations






























Interactive Weather Map New forecast layout! Learn more

10-Day Weather Forecast

Advertisements
Track Severe Weather on mobile